createdAt,value
2022-11-08T00:01:32.319Z,27.58
2022-11-08T00:06:44.766Z,26.65
2022-11-08T00:11:57.152Z,26.33
2022-11-08T00:16:51.485Z,29.02
2022-11-08T00:21:45.406Z,28.95
2022-11-08T00:26:39.366Z,29.55
2022-11-08T00:31:32.313Z,24.17
2022-11-08T00:41:19.903Z,25.33
2022-11-08T00:46:14.052Z,24.35
2022-11-08T00:51:09.142Z,24.42
2022-11-08T00:56:08.704Z,24.05
2022-11-08T01:01:02.274Z,26.77
2022-11-08T01:05:55.750Z,26.20
2022-11-08T01:10:51.495Z,26.50
2022-11-08T01:15:45.247Z,29.08
2022-11-08T01:20:43.478Z,29.30
2022-11-08T01:25:45.315Z,28.63
2022-11-08T01:30:43.846Z,28.75
2022-11-08T01:35:42.504Z,27.45
2022-11-08T01:40:35.677Z,27.83
2022-11-08T01:46:06.134Z,29.20
2022-11-08T01:51:00.996Z,26.02
2022-11-08T01:55:53.567Z,25.73
2022-11-08T02:00:47.193Z,25.33
2022-11-08T02:05:41.090Z,25.80
2022-11-08T02:10:42.439Z,26.83
2022-11-08T02:15:35.516Z,28.67
2022-11-08T02:20:29.022Z,28.50
2022-11-08T02:25:23.262Z,29.08
2022-11-08T02:30:17.447Z,31.27
2022-11-08T02:35:15.190Z,36.33
2022-11-08T02:40:10.249Z,37.50
2022-11-08T02:45:03.742Z,39.20
2022-11-08T02:49:57.732Z,36.55
2022-11-08T02:54:51.717Z,37.33
2022-11-08T02:59:46.047Z,37.47
2022-11-08T03:04:40.910Z,32.40
2022-11-08T03:09:34.821Z,33.80
2022-11-08T03:14:28.882Z,34.53
2022-11-08T03:19:24.069Z,30.65
2022-11-08T03:24:17.853Z,27.95
2022-11-08T03:29:11.776Z,25.33
2022-11-08T03:34:04.443Z,25.13
2022-11-08T03:38:58.087Z,25.45
2022-11-08T03:43:51.649Z,24.05
2022-11-08T03:48:46.122Z,22.88
2022-11-08T03:53:39.931Z,23.15
2022-11-08T03:58:34.147Z,20.65
2022-11-08T04:03:27.971Z,21.73
2022-11-08T04:08:21.851Z,21.70
2022-11-08T04:13:33.806Z,23.83
2022-11-08T04:18:45.856Z,23.27
2022-11-08T04:23:39.779Z,21.65
2022-11-08T04:28:35.749Z,23.88
2022-11-08T04:33:31.107Z,22.80
2022-11-08T04:38:25.540Z,25.15
2022-11-08T04:43:19.509Z,28.52
2022-11-08T04:53:05.823Z,29.38
2022-11-08T04:57:59.886Z,27.15
2022-11-08T05:02:53.570Z,27.55
2022-11-08T05:07:46.273Z,25.48
2022-11-08T05:12:40.550Z,24.00
2022-11-08T05:17:34.353Z,24.02
2022-11-08T05:22:56.224Z,20.65
2022-11-08T05:27:49.636Z,21.58
2022-11-08T05:32:42.738Z,21.38
2022-11-08T05:37:37.187Z,20.75
2022-11-08T05:42:30.774Z,19.38
2022-11-08T05:47:24.800Z,19.60
2022-11-08T05:57:11.486Z,22.67
2022-11-08T06:02:05.378Z,23.65
2022-11-08T06:11:51.623Z,21.60
2022-11-08T06:21:43.177Z,20.45
2022-11-08T06:26:36.801Z,22.38
2022-11-08T06:31:34.084Z,21.40
2022-11-08T06:36:28.084Z,19.83
2022-11-08T06:41:22.405Z,21.17
2022-11-08T06:46:15.906Z,21.95
2022-11-08T06:51:10.160Z,21.77
2022-11-08T06:56:04.023Z,21.23
2022-11-08T07:00:57.148Z,22.90
2022-11-08T07:10:44.068Z,19.38
2022-11-08T07:15:37.363Z,20.75
2022-11-08T07:20:31.216Z,24.05
2022-11-08T07:25:25.526Z,26.55
2022-11-08T07:30:19.640Z,28.48
2022-11-08T07:35:13.542Z,30.45
2022-11-08T07:40:11.612Z,31.25
2022-11-08T07:45:07.170Z,32.80
2022-11-08T07:50:00.564Z,38.25
2022-11-08T07:59:48.335Z,35.22
2022-11-08T08:04:43.249Z,27.45
2022-11-08T08:09:37.269Z,25.50
2022-11-08T08:14:31.708Z,24.85
2022-11-08T08:19:25.508Z,23.98
2022-11-08T08:24:19.983Z,23.67
2022-11-08T08:29:14.013Z,22.55
2022-11-08T08:34:08.511Z,28.90
2022-11-08T08:39:02.803Z,25.05
2022-11-08T08:43:57.373Z,23.15
2022-11-08T08:48:51.247Z,23.65
2022-11-08T08:53:45.493Z,21.33
2022-11-08T08:58:39.885Z,22.05
2022-11-08T09:03:35.379Z,24.17
2022-11-08T09:08:29.492Z,23.65
2022-11-08T09:13:24.114Z,24.08
2022-11-08T09:18:17.771Z,25.55
2022-11-08T09:23:15.685Z,26.73
2022-11-08T09:28:09.923Z,27.20
2022-11-08T09:33:04.736Z,28.75
2022-11-08T09:37:58.069Z,28.48
2022-11-08T09:48:08.178Z,26.70
2022-11-08T09:53:26.713Z,27.77
2022-11-08T09:58:27.503Z,26.25
2022-11-08T10:03:28.246Z,28.65
2022-11-08T10:08:41.968Z,28.80
2022-11-08T10:18:36.674Z,29.17
2022-11-08T10:24:04.687Z,29.42
2022-11-08T10:29:19.729Z,30.02
2022-11-08T10:34:20.787Z,30.10
2022-11-08T10:39:38.833Z,29.13
2022-11-08T10:44:52.156Z,31.65
2022-11-08T10:50:05.757Z,28.25
2022-11-08T10:55:01.545Z,28.73
2022-11-08T10:59:56.962Z,28.35
2022-11-08T11:05:29.634Z,27.25
2022-11-08T11:10:37.471Z,29.05
2022-11-08T11:15:35.986Z,27.65
2022-11-08T11:20:29.385Z,26.88
2022-11-08T11:25:24.911Z,29.08
2022-11-08T11:30:34.434Z,27.92
2022-11-08T11:35:32.477Z,29.17
2022-11-08T11:40:39.374Z,30.90
2022-11-08T11:45:50.765Z,29.05
2022-11-08T11:50:49.396Z,31.85
2022-11-08T11:55:44.940Z,30.92
2022-11-08T12:00:46.905Z,29.63
2022-11-08T12:05:43.361Z,30.60
2022-11-08T12:10:55.445Z,28.95
2022-11-08T12:16:04.305Z,28.25
2022-11-08T12:21:09.069Z,28.95
2022-11-08T12:26:08.763Z,29.85
2022-11-08T12:31:08.078Z,28.30
2022-11-08T12:36:25.024Z,29.55
2022-11-08T12:41:28.407Z,27.38
2022-11-08T12:46:21.657Z,29.95
2022-11-08T12:51:15.312Z,29.60
2022-11-08T12:56:15.841Z,29.90
2022-11-08T13:01:16.808Z,31.75
2022-11-08T13:06:28.984Z,29.35
2022-11-08T13:11:38.217Z,29.25
2022-11-08T13:16:40.020Z,28.73
2022-11-08T13:21:40.536Z,29.97
2022-11-08T13:26:59.247Z,27.88
2022-11-08T13:31:58.722Z,29.00
2022-11-08T13:37:19.932Z,29.17
2022-11-08T13:42:16.178Z,29.98
2022-11-08T13:47:34.624Z,30.25
2022-11-08T13:52:49.550Z,31.17
2022-11-08T13:58:01.250Z,30.13
2022-11-08T14:02:55.088Z,31.75
2022-11-08T14:08:22.357Z,31.42
2022-11-08T14:13:35.157Z,31.98
2022-11-08T14:18:40.078Z,32.60
2022-11-08T14:23:38.450Z,30.95
2022-11-08T14:28:51.567Z,30.83
2022-11-08T14:34:04.787Z,32.65
2022-11-08T14:39:29.885Z,32.33
2022-11-08T14:44:24.017Z,33.28
2022-11-08T14:49:28.740Z,32.50
2022-11-08T14:54:27.539Z,33.08
2022-11-08T14:59:23.479Z,34.50
2022-11-08T15:04:19.137Z,34.33
2022-11-08T15:09:23.711Z,34.42
2022-11-08T15:14:24.274Z,33.97
2022-11-08T15:19:30.538Z,33.35
2022-11-08T15:24:44.701Z,36.40
2022-11-08T15:29:59.410Z,32.78
2022-11-08T15:34:56.600Z,34.20
2022-11-08T15:39:50.510Z,31.92
2022-11-08T15:45:26.170Z,33.83
2022-11-08T15:50:30.063Z,34.08
2022-11-08T15:55:33.200Z,32.78
2022-11-08T16:00:33.999Z,35.80
2022-11-08T16:05:29.667Z,37.03
2022-11-08T16:10:31.650Z,38.92
2022-11-08T16:15:28.114Z,38.22
2022-11-08T16:20:25.104Z,36.80
2022-11-08T16:25:19.053Z,40.78
2022-11-08T16:30:18.325Z,39.35
2022-11-08T16:35:16.393Z,42.67
2022-11-08T16:40:24.527Z,41.90
2022-11-08T16:45:32.559Z,42.00
2022-11-08T16:50:33.438Z,41.55
2022-11-08T16:55:29.752Z,41.92
2022-11-08T17:00:22.961Z,43.20
2022-11-08T17:05:22.133Z,45.25
2022-11-08T17:10:24.426Z,46.47
2022-11-08T17:15:22.127Z,44.10
2022-11-08T17:20:18.229Z,48.65
2022-11-08T17:25:15.487Z,46.13
2022-11-08T17:30:12.414Z,47.22
2022-11-08T17:35:08.414Z,47.42
2022-11-08T17:40:04.543Z,47.42
2022-11-08T17:44:58.311Z,47.75
2022-11-08T17:49:52.889Z,47.70
2022-11-08T17:54:52.629Z,47.95
2022-11-08T17:59:48.797Z,49.25
2022-11-08T18:04:42.002Z,48.65
2022-11-08T18:09:36.987Z,49.63
2022-11-08T18:14:30.353Z,49.17
2022-11-08T18:19:24.691Z,49.58
2022-11-08T18:24:19.767Z,50.65
2022-11-08T18:29:12.496Z,53.85
2022-11-08T18:39:02.134Z,57.35
2022-11-08T18:43:56.152Z,60.00
2022-11-08T18:48:50.865Z,68.32
2022-11-08T18:53:45.345Z,71.07
2022-11-08T18:58:39.074Z,73.10
2022-11-08T19:03:34.944Z,72.00
2022-11-08T19:08:31.664Z,70.72
2022-11-08T19:13:30.882Z,70.68
2022-11-08T19:18:30.019Z,67.60
2022-11-08T19:23:29.452Z,70.68
2022-11-08T19:28:31.658Z,67.57
2022-11-08T19:33:30.376Z,66.60
2022-11-08T19:38:26.257Z,63.58
2022-11-08T19:43:21.887Z,57.47
2022-11-08T19:48:20.126Z,61.97
2022-11-08T19:53:15.346Z,58.85
2022-11-08T19:58:16.375Z,62.60
2022-11-08T20:03:11.002Z,67.28
2022-11-08T20:08:06.736Z,69.40
2022-11-08T20:13:05.708Z,67.68
2022-11-08T20:17:59.855Z,71.68
2022-11-08T20:22:53.499Z,72.10
2022-11-08T20:32:41.478Z,80.95
2022-11-08T20:37:36.184Z,77.72
2022-11-08T20:42:30.635Z,73.47
2022-11-08T20:47:24.464Z,70.85
2022-11-08T20:52:23.186Z,64.07
2022-11-08T20:57:20.315Z,60.72
2022-11-08T21:02:13.543Z,60.95
2022-11-08T21:12:21.060Z,62.50
2022-11-08T21:17:21.865Z,66.00
2022-11-08T21:22:15.423Z,69.57
2022-11-08T21:27:09.780Z,67.33
2022-11-08T21:32:04.700Z,69.60
2022-11-08T21:36:59.081Z,59.75
2022-11-08T21:41:53.087Z,61.03
2022-11-08T21:46:47.542Z,61.78
2022-11-08T21:51:41.760Z,62.40
2022-11-08T22:01:30.832Z,67.43
2022-11-08T22:06:24.642Z,66.95
2022-11-08T22:16:12.148Z,64.75
2022-11-08T22:21:24.297Z,67.22
2022-11-08T22:26:18.756Z,66.38
2022-11-08T22:31:13.891Z,63.10
2022-11-08T22:36:09.011Z,62.30
2022-11-08T22:41:03.907Z,60.78
2022-11-08T22:45:58.530Z,64.07
2022-11-08T22:50:55.829Z,64.03
2022-11-08T22:55:51.205Z,58.45
2022-11-08T23:00:44.448Z,59.80
2022-11-08T23:05:38.768Z,60.40
2022-11-08T23:10:32.555Z,61.13
2022-11-08T23:15:47.960Z,62.00
2022-11-08T23:21:04.286Z,64.50
2022-11-08T23:26:00.104Z,61.47
2022-11-08T23:31:12.189Z,62.45
2022-11-08T23:36:13.203Z,61.28
2022-11-08T23:41:24.657Z,58.75
2022-11-08T23:46:19.203Z,60.65
2022-11-08T23:51:13.387Z,65.43
2022-11-08T23:56:08.461Z,61.25
